Ruston, LA

3:23 PM CDT on September 02, 2014 (GMT -0500)
Monroe Regional | Change Station
CLOSE
Current Station
Airport
Location: Monroe,
Elevation: 79 ft
Nearby Weather Stations
Active Advisory: Special Statement

Elev 79 ft 32.51 °N, 92.04 °W | Updated 30 minutes ago

Partly Cloudy
Partly Cloudy
80 °F
Feels Like 85 °F
N
7
Wind Variable Wind from WNW

Today
High -- | Low -- °F
--% Chance of Precip.
Yesterday
High -- | Low -- °F
Precip. -- in
6:46 AM 7:33 PM
First Quarter, 54% visible
Pressure 30.04 in
Visibility 10.0 miles
Clouds Few 10000 ft
Heat Index 85 °F
Dew Point 75 °F
Humidity 85%
Rainfall 0.37 in
Snow Depth Not available.
UV 8 out of 12
Pollen 9.40 out of 12
Air Quality Not available.
Flu Activity Not available.
METAR KMLU 021953Z AUTO 30006KT 10SM FEW100 27/24 A3004 RMK AO2 LTG DSNT ALQDS TSE04RAE13 SLP171 P0000 T02670239

More Conditions Fewer Conditions

Pressure 30.04 in
Visibility 10.0 miles
Clouds Few 10000 ft
Heat Index 85 °F
Dew Point 75 °F
Humidity 85%
Rainfall 0.37 in
Snow Depth Not available.
UV 8 out of 12
Pollen 9.40 out of 12
Air Quality Not available.
Flu Activity Not available.
METAR KMLU 021953Z AUTO 30006KT 10SM FEW100 27/24 A3004 RMK AO2 LTG DSNT ALQDS TSE04RAE13 SLP171 P0000 T02670239

More Conditions Fewer Conditions

Nowcast | as of 2:31 PM CDT on September 2, 2014

Scattered showers and thunderstorms will continue to develop across much of the region through the early evening hours. The stronger storms will be capable of producing gusty winds and frequent cloud to ground lightning. Rainfall amounts will range from a few hundredths of an inch to a tenth of an inch through 430 PM.

×

10-Day Weather Forecast

Almanac

Astronomy

Sep. 02, 2014 Rise Set
Actual Time 6:46 AM CDT 7:33 PM CDT
Civil Twilight 6:21 AM CDT 7:58 PM CDT
Nautical Twilight 5:51 AM CDT 8:28 PM CDT
Astronomical Twilight 5:21 AM CDT 8:58 PM CDT
Moon 2:07 PM CDT No Moon Set
Length of Visible Light 13h 37m
Length of Day
12h 47m
Tomorrow will be 1m 55s shorter.
First Quarter, 54% of the Moon is Illuminated
Today
First Quarter
Sep 8
Full
Sep 15
Last Quarter
Sep 24
New
Oct 1
First Quarter

Today's Extremes

State Highs State Lows

Community

WunderPhotos

Upload Photos

1,749,757 photos uploaded!

WunderBlogs® & News

By Dr. Jeff Masters
Director of Meteorology, Weather Underground
By Kari Strenfel
Meteorologist, Weather Underground
By Christopher C. Burt
Weather Historian, Weather Underground
September 2, 2014
September 2, 2014
September 2, 2014

Nearby

Snow Depth

Station Depth Elevation
No new snow has been reported.

Earthquake Activity

City Distance Mag. Time & Date
No recent earthquake activity has been reported nearby.
Minimum magnitude displayed is 2.5.

Coastal Water Temperatures

Place Temperature
No Stations Reporting

Nearby Weather Stations